createdAt,value
2023-07-24T00:00:06.634Z,51.61
2023-07-24T00:02:33.373Z,51.87
2023-07-24T00:04:59.966Z,51.01
2023-07-24T00:07:26.673Z,51.62
2023-07-24T00:09:53.773Z,52.46
2023-07-24T00:12:20.374Z,51.80
2023-07-24T00:14:46.985Z,52.95
2023-07-24T00:17:13.651Z,52.62
2023-07-24T00:19:40.239Z,54.10
2023-07-24T00:22:06.941Z,54.04
2023-07-24T00:24:33.622Z,56.26
2023-07-24T00:27:00.366Z,55.49
2023-07-24T00:29:27.006Z,56.48
2023-07-24T00:31:53.661Z,56.31
2023-07-24T00:34:20.304Z,56.17
2023-07-24T00:36:46.937Z,56.99
2023-07-24T00:39:16.104Z,57.71
2023-07-24T00:41:43.811Z,56.37
2023-07-24T00:44:10.430Z,58.59
2023-07-24T00:46:37.373Z,58.62
2023-07-24T00:49:05.732Z,58.68
2023-07-24T00:51:32.761Z,59.04
2023-07-24T00:54:02.197Z,60.25
2023-07-24T00:56:30.511Z,58.29
2023-07-24T00:58:57.953Z,56.53
2023-07-24T01:01:25.161Z,55.11
2023-07-24T01:03:52.880Z,55.12
2023-07-24T01:06:19.804Z,54.77
2023-07-24T01:08:46.447Z,54.02
2023-07-24T01:11:17.461Z,53.44
2023-07-24T01:13:57.032Z,53.53
2023-07-24T01:16:27.858Z,53.89
2023-07-24T01:18:57.091Z,53.24
2023-07-24T01:21:30.651Z,52.96
2023-07-24T01:24:15.704Z,53.10
2023-07-24T01:26:42.818Z,53.12
2023-07-24T01:29:09.414Z,53.81
2023-07-24T01:31:36.270Z,53.62
2023-07-24T01:34:02.917Z,53.70
2023-07-24T01:36:29.740Z,53.99
2023-07-24T01:38:57.489Z,54.75
2023-07-24T01:41:25.079Z,55.72
2023-07-24T01:43:51.712Z,56.81
2023-07-24T01:46:18.361Z,56.23
2023-07-24T01:48:45.096Z,56.73
2023-07-24T01:51:11.676Z,56.85
2023-07-24T01:53:38.261Z,56.75
2023-07-24T01:56:05.174Z,57.09
2023-07-24T01:58:31.850Z,58.20
2023-07-24T02:00:58.521Z,58.30
2023-07-24T02:03:25.270Z,58.22
2023-07-24T02:05:52.746Z,59.29
2023-07-24T02:08:19.500Z,59.70
2023-07-24T02:10:49.953Z,60.26
2023-07-24T02:13:16.633Z,60.80
2023-07-24T02:15:43.202Z,60.62
2023-07-24T02:18:09.931Z,60.77
2023-07-24T02:20:36.522Z,61.12
2023-07-24T02:23:03.138Z,61.43
2023-07-24T02:25:29.784Z,60.00
2023-07-24T02:27:56.983Z,59.02
2023-07-24T02:30:23.640Z,56.36
2023-07-24T02:32:50.701Z,57.15
2023-07-24T02:35:19.302Z,57.48
2023-07-24T02:37:46.363Z,55.95
2023-07-24T02:40:13.409Z,55.04
2023-07-24T02:42:41.270Z,53.84
2023-07-24T02:45:12.373Z,53.29
2023-07-24T02:47:39.184Z,53.57
2023-07-24T02:50:06.180Z,52.80
2023-07-24T02:56:21.723Z,52.98
2023-07-24T02:58:48.301Z,52.99
2023-07-24T03:01:15.468Z,52.41
2023-07-24T03:03:42.703Z,52.24
2023-07-24T03:06:09.442Z,52.49
2023-07-24T03:08:36.006Z,52.22
2023-07-24T03:11:06.033Z,52.17
2023-07-24T03:13:32.572Z,51.98
2023-07-24T03:16:00.221Z,51.82
2023-07-24T03:18:27.000Z,51.43
2023-07-24T03:20:53.611Z,51.23
2023-07-24T03:23:21.299Z,51.34
2023-07-24T03:25:48.113Z,51.52
2023-07-24T03:28:14.665Z,51.45
2023-07-24T03:30:41.270Z,51.62
2023-07-24T03:33:08.398Z,52.29
2023-07-24T03:35:35.157Z,52.95
2023-07-24T03:38:01.758Z,52.04
2023-07-24T03:40:28.370Z,52.57
2023-07-24T03:42:55.010Z,51.81
2023-07-24T03:45:21.888Z,51.43
2023-07-24T03:47:48.505Z,51.12
2023-07-24T03:50:15.225Z,51.45
2023-07-24T03:52:41.799Z,51.64
2023-07-24T03:55:09.134Z,52.40
2023-07-24T03:57:35.891Z,51.61
2023-07-24T04:00:03.887Z,51.02
2023-07-24T04:02:30.477Z,50.75
2023-07-24T04:04:57.214Z,50.41
2023-07-24T04:07:24.002Z,49.41
2023-07-24T04:09:50.653Z,50.51
2023-07-24T04:12:17.203Z,50.68
2023-07-24T04:14:43.849Z,50.88
2023-07-24T04:17:10.751Z,50.51
2023-07-24T04:19:37.374Z,50.49
2023-07-24T04:22:04.209Z,50.42
2023-07-24T04:24:30.790Z,49.97
2023-07-24T04:26:57.402Z,51.17
2023-07-24T04:29:26.840Z,53.86
2023-07-24T04:31:53.628Z,51.81
2023-07-24T04:34:20.432Z,53.30
2023-07-24T04:36:46.967Z,53.89
2023-07-24T04:39:13.572Z,54.60
2023-07-24T04:41:40.182Z,55.30
2023-07-24T04:44:06.727Z,56.77
2023-07-24T04:46:33.687Z,57.61
2023-07-24T04:49:00.640Z,56.62
2023-07-24T04:51:27.242Z,57.24
2023-07-24T04:53:54.816Z,55.11
2023-07-24T04:56:21.389Z,53.29
2023-07-24T04:58:47.938Z,53.28
2023-07-24T05:01:14.507Z,52.96
2023-07-24T05:03:41.153Z,54.51
2023-07-24T05:06:07.739Z,53.34
2023-07-24T05:08:34.426Z,53.98
2023-07-24T05:11:01.043Z,53.51
2023-07-24T05:13:28.177Z,55.22
2023-07-24T05:15:54.758Z,55.11
2023-07-24T05:18:21.491Z,53.74
2023-07-24T05:20:49.709Z,52.86
2023-07-24T05:23:16.417Z,50.36
2023-07-24T05:25:43.061Z,50.56
2023-07-24T05:28:10.447Z,50.91
2023-07-24T05:30:37.304Z,49.51
2023-07-24T05:33:03.982Z,50.90
2023-07-24T05:35:30.722Z,50.76
2023-07-24T05:37:57.373Z,50.83
2023-07-24T05:40:24.028Z,51.19
2023-07-24T05:42:50.612Z,49.99
2023-07-24T05:45:17.226Z,49.61
2023-07-24T05:47:43.955Z,48.15
2023-07-24T05:50:11.003Z,47.03
2023-07-24T05:52:37.578Z,46.89
2023-07-24T05:55:04.597Z,47.14
2023-07-24T05:57:31.250Z,47.15
2023-07-24T05:59:57.816Z,46.11
2023-07-24T06:02:24.674Z,45.43
2023-07-24T06:04:51.402Z,45.71
2023-07-24T06:07:18.083Z,45.43
2023-07-24T06:09:44.688Z,45.37
2023-07-24T06:12:11.297Z,45.24
2023-07-24T06:14:37.871Z,45.39
2023-07-24T06:17:05.384Z,45.95
2023-07-24T06:19:32.050Z,45.76
2023-07-24T06:21:58.754Z,45.60
2023-07-24T06:24:25.452Z,45.81
2023-07-24T06:26:52.097Z,46.11
2023-07-24T06:29:18.748Z,45.10
2023-07-24T06:31:45.382Z,45.40
2023-07-24T06:34:12.081Z,45.60
2023-07-24T06:36:38.631Z,45.60
2023-07-24T06:39:05.276Z,46.04
2023-07-24T06:41:31.893Z,45.74
2023-07-24T06:43:58.492Z,45.51
2023-07-24T06:46:25.136Z,45.33
2023-07-24T06:48:51.724Z,45.01
2023-07-24T06:51:18.316Z,45.00
2023-07-24T06:53:44.873Z,44.78
2023-07-24T06:56:11.426Z,44.03
2023-07-24T06:58:37.967Z,43.61
2023-07-24T07:01:08.309Z,43.33
2023-07-24T07:03:38.094Z,43.26
2023-07-24T07:06:04.853Z,42.98
2023-07-24T07:08:31.851Z,42.73
2023-07-24T07:10:59.592Z,42.62
2023-07-24T07:13:26.237Z,42.08
2023-07-24T07:15:52.904Z,41.48
2023-07-24T07:18:19.715Z,41.67
2023-07-24T07:20:51.461Z,41.65
2023-07-24T07:23:18.738Z,40.93
2023-07-24T07:25:48.716Z,40.27
2023-07-24T07:28:16.814Z,39.98
2023-07-24T07:30:46.083Z,39.80
2023-07-24T07:33:12.945Z,39.55
2023-07-24T07:35:39.517Z,39.94
2023-07-24T07:38:06.121Z,39.86
2023-07-24T07:40:32.756Z,39.87
2023-07-24T07:42:59.337Z,39.64
2023-07-24T07:45:26.313Z,39.72
2023-07-24T07:47:54.447Z,39.60
2023-07-24T07:50:21.338Z,39.35
2023-07-24T07:52:51.748Z,39.21
2023-07-24T07:55:21.284Z,38.84
2023-07-24T07:57:47.904Z,38.97
2023-07-24T08:00:14.871Z,39.63
2023-07-24T08:02:41.592Z,38.41
2023-07-24T08:05:13.629Z,40.27
2023-07-24T08:07:41.153Z,39.90
2023-07-24T08:10:08.133Z,40.04
2023-07-24T08:12:35.117Z,39.64
2023-07-24T08:15:01.853Z,39.41
2023-07-24T08:17:28.598Z,39.35
2023-07-24T08:19:55.323Z,39.29
2023-07-24T08:22:23.748Z,39.56
2023-07-24T08:24:53.000Z,39.40
2023-07-24T08:27:21.115Z,38.59
2023-07-24T08:29:47.677Z,38.72
2023-07-24T08:32:14.529Z,38.31
2023-07-24T08:34:41.156Z,37.92
2023-07-24T08:37:07.745Z,38.02
2023-07-24T08:39:34.379Z,37.52
2023-07-24T08:42:01.202Z,37.56
2023-07-24T08:44:32.205Z,37.47
2023-07-24T08:46:59.362Z,36.86
2023-07-24T08:49:26.773Z,35.98
2023-07-24T08:51:54.293Z,35.28
2023-07-24T08:54:21.541Z,34.54
2023-07-24T08:56:51.349Z,34.98
2023-07-24T08:59:17.983Z,35.85
2023-07-24T09:01:45.271Z,35.31
2023-07-24T09:04:11.830Z,34.72
2023-07-24T09:06:38.557Z,33.08
2023-07-24T09:09:14.931Z,31.42
2023-07-24T09:11:50.261Z,32.39
2023-07-24T09:14:31.185Z,32.20
2023-07-24T09:17:05.013Z,31.22
2023-07-24T09:19:32.130Z,32.94
2023-07-24T09:22:12.765Z,34.07
2023-07-24T09:24:49.958Z,34.58
2023-07-24T09:27:16.656Z,36.44
2023-07-24T09:29:43.313Z,36.96
2023-07-24T09:32:39.121Z,36.25
2023-07-24T09:35:07.201Z,35.53
2023-07-24T09:37:35.467Z,35.33
2023-07-24T09:40:05.397Z,36.42
2023-07-24T09:42:47.467Z,36.19
2023-07-24T09:45:23.288Z,35.98
2023-07-24T09:47:56.545Z,35.79
2023-07-24T09:50:27.280Z,36.21
2023-07-24T09:52:55.722Z,36.82
2023-07-24T09:55:33.748Z,36.62
2023-07-24T09:58:01.794Z,36.68
2023-07-24T10:00:29.294Z,37.39
2023-07-24T10:02:57.176Z,37.02
2023-07-24T10:05:24.046Z,36.41
2023-07-24T10:07:52.502Z,36.97
2023-07-24T10:10:19.524Z,36.16
2023-07-24T10:12:46.310Z,35.87
2023-07-24T10:15:13.282Z,36.36
2023-07-24T10:17:41.813Z,35.74
2023-07-24T10:20:09.518Z,35.57
2023-07-24T10:22:39.088Z,36.38
2023-07-24T10:25:06.990Z,36.31
2023-07-24T10:27:37.805Z,35.87
2023-07-24T10:30:18.639Z,35.82
2023-07-24T10:32:54.219Z,37.04
2023-07-24T10:35:23.900Z,38.32
2023-07-24T10:38:01.290Z,40.84
2023-07-24T10:40:28.048Z,46.95
2023-07-24T10:43:07.911Z,47.59
2023-07-24T10:45:43.620Z,46.22
2023-07-24T10:48:12.773Z,43.97
2023-07-24T10:50:41.226Z,44.14
2023-07-24T10:53:07.849Z,43.74
2023-07-24T10:55:34.537Z,42.21
2023-07-24T10:58:01.129Z,43.13
2023-07-24T11:00:28.589Z,45.80
2023-07-24T11:02:55.956Z,44.38
2023-07-24T11:05:23.872Z,44.46
2023-07-24T11:07:50.924Z,44.08
2023-07-24T11:10:21.122Z,41.27
2023-07-24T11:12:48.387Z,40.08
2023-07-24T11:15:15.694Z,38.58
2023-07-24T11:17:43.676Z,37.70
2023-07-24T11:20:16.107Z,39.54
2023-07-24T11:22:44.463Z,41.85
2023-07-24T11:25:12.250Z,43.15
2023-07-24T11:27:42.459Z,43.62
2023-07-24T11:30:10.329Z,45.75
2023-07-24T11:32:39.895Z,43.14
2023-07-24T11:35:07.522Z,43.87
2023-07-24T11:37:35.954Z,43.31
2023-07-24T11:40:11.991Z,42.78
2023-07-24T11:42:40.476Z,42.41
2023-07-24T11:45:10.861Z,41.48
2023-07-24T11:47:48.622Z,40.68
2023-07-24T11:50:17.306Z,39.69
2023-07-24T11:52:46.582Z,39.97
2023-07-24T11:55:15.498Z,40.55
2023-07-24T11:57:42.196Z,41.34
2023-07-24T12:00:20.981Z,40.87
2023-07-24T12:02:47.774Z,40.60
2023-07-24T12:05:14.578Z,40.58
2023-07-24T12:07:45.050Z,40.86
2023-07-24T12:10:13.916Z,39.97
2023-07-24T12:12:47.996Z,41.45
2023-07-24T12:15:16.001Z,40.76
2023-07-24T12:17:42.712Z,40.93
2023-07-24T12:20:13.687Z,41.18
2023-07-24T12:22:40.495Z,41.95
2023-07-24T12:25:07.632Z,42.04
2023-07-24T12:27:34.607Z,42.69
2023-07-24T12:30:01.706Z,43.12
2023-07-24T12:32:28.341Z,43.15
2023-07-24T12:34:55.299Z,44.20
2023-07-24T12:37:22.085Z,44.50
2023-07-24T12:39:49.410Z,44.51
2023-07-24T12:42:16.994Z,46.08
2023-07-24T12:44:44.862Z,47.88
2023-07-24T12:47:12.672Z,48.45
2023-07-24T12:49:39.790Z,52.13
2023-07-24T12:52:07.056Z,54.92
2023-07-24T12:54:50.501Z,56.50
2023-07-24T12:57:20.238Z,59.70
2023-07-24T12:59:46.882Z,60.69
2023-07-24T13:02:13.450Z,66.43
2023-07-24T13:04:40.461Z,69.57
2023-07-24T13:07:07.201Z,69.67
2023-07-24T13:09:33.746Z,70.39
2023-07-24T13:12:00.404Z,72.91
2023-07-24T13:14:26.956Z,74.51
2023-07-24T13:16:53.663Z,75.94
2023-07-24T13:19:21.591Z,74.34
2023-07-24T13:21:48.564Z,74.54
2023-07-24T13:24:15.527Z,72.49
2023-07-24T13:26:42.290Z,71.09
2023-07-24T13:29:08.905Z,69.09
2023-07-24T13:31:36.174Z,68.85
2023-07-24T13:34:03.303Z,64.30
2023-07-24T13:36:30.363Z,66.53
2023-07-24T13:38:57.224Z,62.85
2023-07-24T13:41:23.804Z,61.68
2023-07-24T13:43:50.446Z,59.99
2023-07-24T13:46:17.074Z,58.62
2023-07-24T13:48:43.840Z,53.63
2023-07-24T13:51:10.483Z,47.99
2023-07-24T13:53:37.161Z,50.03
2023-07-24T13:56:04.274Z,50.71
2023-07-24T13:58:30.888Z,50.56
2023-07-24T14:00:57.504Z,51.30
2023-07-24T14:03:29.273Z,53.06
2023-07-24T14:05:56.809Z,51.49
2023-07-24T14:08:23.426Z,52.99
2023-07-24T14:10:50.140Z,48.61
2023-07-24T14:13:16.757Z,47.18
2023-07-24T14:15:43.652Z,49.26
2023-07-24T14:18:10.271Z,46.07
2023-07-24T14:20:38.340Z,45.51
2023-07-24T14:23:04.939Z,45.93
2023-07-24T14:25:31.565Z,42.08
2023-07-24T14:27:58.165Z,39.79
2023-07-24T14:30:24.715Z,37.36
2023-07-24T14:32:51.853Z,37.26
2023-07-24T14:35:19.373Z,40.15
2023-07-24T14:37:45.982Z,43.88
2023-07-24T14:40:13.290Z,46.80
2023-07-24T14:42:39.934Z,47.60
2023-07-24T14:45:07.338Z,47.30
2023-07-24T14:47:33.934Z,47.78
2023-07-24T14:50:00.623Z,48.20
2023-07-24T14:52:27.258Z,46.91
2023-07-24T14:54:53.871Z,47.70
2023-07-24T14:57:25.473Z,45.54
2023-07-24T14:59:52.545Z,44.24
2023-07-24T15:02:19.809Z,43.40
2023-07-24T15:04:46.494Z,43.99
2023-07-24T15:07:13.102Z,42.92
2023-07-24T15:09:39.712Z,40.33
2023-07-24T15:12:06.688Z,38.68
2023-07-24T15:14:33.376Z,40.04
2023-07-24T15:17:00.074Z,43.14
2023-07-24T15:19:26.686Z,45.13
2023-07-24T15:21:53.307Z,42.80
2023-07-24T15:24:20.373Z,41.77
2023-07-24T15:26:47.278Z,44.07
2023-07-24T15:29:18.860Z,45.18
2023-07-24T15:31:46.145Z,44.36
2023-07-24T15:34:12.959Z,43.46
2023-07-24T15:36:39.731Z,44.63
2023-07-24T15:39:06.518Z,42.71
2023-07-24T15:41:33.893Z,42.44
2023-07-24T15:44:00.873Z,42.53
2023-07-24T15:46:33.022Z,44.02
2023-07-24T15:49:00.813Z,44.58
2023-07-24T15:51:27.911Z,43.69
2023-07-24T15:53:55.184Z,40.12
2023-07-24T15:56:22.360Z,39.68
2023-07-24T15:58:51.055Z,35.40
2023-07-24T16:01:18.148Z,36.77
2023-07-24T16:03:45.076Z,40.66
2023-07-24T16:06:12.540Z,41.86
2023-07-24T16:08:39.368Z,41.61
2023-07-24T16:11:09.369Z,43.73
2023-07-24T16:13:45.172Z,43.71
2023-07-24T16:16:15.014Z,44.18
2023-07-24T16:18:42.458Z,42.09
2023-07-24T16:21:09.137Z,41.45
2023-07-24T16:23:36.062Z,41.59
2023-07-24T16:26:02.924Z,42.25
2023-07-24T16:28:29.564Z,38.35
2023-07-24T16:30:58.924Z,36.30
2023-07-24T16:33:26.023Z,35.63
2023-07-24T16:35:53.160Z,35.89
2023-07-24T16:38:19.977Z,37.71
2023-07-24T16:40:46.768Z,36.90
2023-07-24T16:43:13.434Z,37.82
2023-07-24T16:45:40.089Z,37.08
2023-07-24T16:48:07.186Z,37.55
2023-07-24T16:50:36.479Z,37.33
2023-07-24T16:53:04.187Z,39.40
2023-07-24T16:55:30.843Z,37.76
2023-07-24T16:57:57.869Z,38.21
2023-07-24T17:00:24.603Z,36.67
2023-07-24T17:02:51.375Z,34.04
2023-07-24T17:05:18.193Z,33.12
2023-07-24T17:07:44.810Z,35.33
2023-07-24T17:10:11.575Z,35.69
2023-07-24T17:12:38.170Z,36.50
2023-07-24T17:15:05.069Z,37.38
2023-07-24T17:17:31.755Z,38.09
2023-07-24T17:19:58.442Z,37.58
2023-07-24T17:22:25.246Z,36.60
2023-07-24T17:24:52.247Z,36.32
2023-07-24T17:27:18.889Z,36.56
2023-07-24T17:29:46.298Z,36.30
2023-07-24T17:32:14.166Z,35.38
2023-07-24T17:34:42.037Z,36.40
2023-07-24T17:37:08.669Z,36.46
2023-07-24T17:39:35.354Z,36.01
2023-07-24T17:42:02.035Z,36.34
2023-07-24T17:44:28.644Z,38.04
2023-07-24T17:46:55.261Z,38.29
2023-07-24T17:49:21.896Z,37.99
2023-07-24T17:51:48.535Z,37.59
2023-07-24T17:54:15.069Z,38.89
2023-07-24T17:56:41.954Z,41.08
2023-07-24T17:59:08.523Z,42.86
2023-07-24T18:01:36.225Z,44.26
2023-07-24T18:04:02.911Z,45.47
2023-07-24T18:06:29.525Z,46.81
2023-07-24T18:08:56.076Z,46.05
2023-07-24T18:11:22.730Z,46.75
2023-07-24T18:13:49.306Z,46.48
2023-07-24T18:16:17.285Z,47.28
2023-07-24T18:18:44.249Z,46.93
2023-07-24T18:21:10.896Z,47.54
2023-07-24T18:23:37.495Z,47.42
2023-07-24T18:26:04.233Z,48.02
2023-07-24T18:28:30.848Z,48.12
2023-07-24T18:30:57.423Z,47.95
2023-07-24T18:33:23.991Z,48.50
2023-07-24T18:35:53.391Z,48.22
2023-07-24T18:38:21.362Z,48.74
2023-07-24T18:40:48.103Z,49.08
2023-07-24T18:43:14.730Z,48.91
2023-07-24T18:45:41.430Z,49.91
2023-07-24T18:48:10.322Z,50.32
2023-07-24T18:50:37.006Z,50.47
2023-07-24T18:53:03.711Z,51.12
2023-07-24T18:55:30.574Z,51.59
2023-07-24T18:57:57.206Z,50.88
2023-07-24T19:00:23.890Z,50.25
2023-07-24T19:02:50.509Z,48.90
2023-07-24T19:05:17.154Z,50.11
2023-07-24T19:07:43.762Z,51.54
2023-07-24T19:10:11.371Z,52.55
2023-07-24T19:12:39.834Z,53.11
2023-07-24T19:15:07.930Z,54.05
2023-07-24T19:17:34.958Z,54.80
2023-07-24T19:20:01.653Z,55.33
2023-07-24T19:22:28.287Z,56.35
2023-07-24T19:24:55.348Z,57.19
2023-07-24T19:27:23.295Z,59.08
2023-07-24T19:29:51.154Z,59.79
2023-07-24T19:32:18.239Z,61.16
2023-07-24T19:34:45.288Z,61.66
2023-07-24T19:37:12.144Z,62.55
2023-07-24T19:39:41.803Z,63.34
2023-07-24T19:42:10.577Z,64.37
2023-07-24T19:44:38.469Z,63.99
2023-07-24T19:47:05.433Z,64.74
2023-07-24T19:49:34.510Z,65.33
2023-07-24T19:52:01.880Z,65.28
2023-07-24T19:54:30.027Z,65.45
2023-07-24T19:56:56.757Z,67.13
2023-07-24T19:59:23.646Z,67.65
2023-07-24T20:01:50.300Z,68.13
2023-07-24T20:04:16.972Z,68.42
2023-07-24T20:06:43.508Z,68.68
2023-07-24T20:09:10.156Z,68.38
2023-07-24T20:11:36.986Z,68.22
2023-07-24T20:14:03.772Z,68.13
2023-07-24T20:16:30.509Z,67.20
2023-07-24T20:18:57.132Z,67.08
2023-07-24T20:21:23.900Z,66.80
2023-07-24T20:23:50.507Z,66.43
2023-07-24T20:26:17.082Z,66.72
2023-07-24T20:28:44.506Z,66.37
2023-07-24T20:31:11.874Z,66.25
2023-07-24T20:33:38.834Z,66.06
2023-07-24T20:36:09.918Z,65.75
2023-07-24T20:38:37.998Z,65.41
2023-07-24T20:41:04.648Z,64.84
2023-07-24T20:43:31.316Z,65.19
2023-07-24T20:45:58.115Z,65.23
2023-07-24T20:48:25.858Z,65.92
2023-07-24T20:50:54.265Z,64.99
2023-07-24T20:53:20.847Z,65.45
2023-07-24T20:55:48.028Z,65.16
2023-07-24T20:58:14.584Z,65.74
2023-07-24T21:00:41.167Z,69.15
2023-07-24T21:03:07.855Z,72.76
2023-07-24T21:05:37.260Z,74.66
2023-07-24T21:08:04.600Z,76.66
2023-07-24T21:10:31.191Z,78.86
2023-07-24T21:12:57.808Z,80.06
2023-07-24T21:15:24.399Z,81.45
2023-07-24T21:17:51.039Z,83.02
2023-07-24T21:20:17.664Z,83.39
2023-07-24T21:22:44.285Z,84.07
2023-07-24T21:25:10.919Z,84.04
2023-07-24T21:27:37.648Z,84.61
2023-07-24T21:30:05.199Z,87.44
2023-07-24T21:32:31.827Z,85.10
2023-07-24T21:34:58.417Z,84.69
2023-07-24T21:37:25.032Z,84.89
2023-07-24T21:39:51.606Z,85.06
2023-07-24T21:42:18.234Z,85.48
2023-07-24T21:44:44.801Z,85.29
2023-07-24T21:47:11.528Z,85.40
2023-07-24T21:49:38.149Z,86.76
2023-07-24T21:52:05.116Z,86.74
2023-07-24T21:54:32.249Z,87.65
2023-07-24T21:56:58.828Z,86.14
2023-07-24T21:59:25.401Z,85.40
2023-07-24T22:01:52.004Z,85.26
2023-07-24T22:04:19.270Z,85.77
2023-07-24T22:06:45.867Z,85.41
2023-07-24T22:09:12.448Z,84.86
2023-07-24T22:11:39.009Z,84.94
2023-07-24T22:14:05.632Z,85.25
2023-07-24T22:16:32.286Z,86.10
2023-07-24T22:19:01.538Z,86.91
2023-07-24T22:21:28.196Z,87.99
2023-07-24T22:23:54.906Z,87.96
2023-07-24T22:26:21.509Z,90.15
2023-07-24T22:28:48.088Z,88.32
2023-07-24T22:31:14.905Z,87.95
2023-07-24T22:33:41.506Z,87.46
2023-07-24T22:36:08.138Z,86.97
2023-07-24T22:38:34.746Z,86.57
2023-07-24T22:41:10.044Z,86.33
2023-07-24T22:43:37.086Z,87.54
2023-07-24T22:46:03.843Z,88.70
2023-07-24T22:48:30.616Z,88.70
2023-07-24T22:50:57.228Z,88.12
2023-07-24T22:53:23.792Z,89.73
2023-07-24T22:55:50.372Z,90.23
2023-07-24T22:58:16.929Z,89.33
2023-07-24T23:00:43.581Z,88.48
2023-07-24T23:03:11.278Z,87.34
2023-07-24T23:05:37.920Z,87.01
2023-07-24T23:08:04.631Z,86.20
2023-07-24T23:11:08.677Z,85.58
2023-07-24T23:13:35.185Z,86.47
2023-07-24T23:16:01.700Z,85.45
2023-07-24T23:18:28.211Z,85.24
2023-07-24T23:20:54.717Z,84.54
2023-07-24T23:23:21.208Z,84.55
2023-07-24T23:25:47.689Z,83.97
2023-07-24T23:28:14.645Z,83.74
2023-07-24T23:30:41.936Z,83.75
2023-07-24T23:33:09.323Z,83.58
2023-07-24T23:35:35.846Z,83.96
2023-07-24T23:38:02.698Z,83.52
2023-07-24T23:40:29.209Z,83.53
2023-07-24T23:42:55.719Z,83.44
2023-07-24T23:45:22.221Z,83.62
2023-07-24T23:47:48.710Z,82.48
2023-07-24T23:50:15.280Z,82.30
2023-07-24T23:52:41.789Z,81.45
2023-07-24T23:55:09.643Z,81.17
2023-07-24T23:57:36.172Z,81.41
